OLBA/BEY METAR and TAF weather

Enter ICAO airport designator
Station Type Date Time Source
OLBA METAR 2020/09/18 17:00 UTC NOAA

OLBA 181700Z 26004KT 6000 SCT023 29/25 Q1013 NOSIG


Station Type Date Time Source
OLBA Decoded METAR 2020/09/18 17:00 UTC NOAA

Beyrouth Aeroport , Lebanon (OLBA) 33-49N 035-29E 19M
Sep 18, 2020 - 01:00 PM EDT / 2020.09.18 1700 UTC
Wind: from the W (260 degrees) at 5 MPH (4 KT):0
Visibility: 3 mile(s):0
Sky conditions: partly cloudy
Temperature: 84 F (29 C)
Dew Point: 77 F (25 C)
Relative Humidity: 79%
Pressure (altimeter): 29.91 in. Hg (1013 hPa)
ob: OLBA 181700Z 26004KT 6000 SCT023 29/25 Q1013 NOSIG
cycle: 17

Station Type Date Time Source
OLBA TAF 2020/09/18 18:51 UTC NOAA

TAF TAF OLBA 181600Z 1818/1924 16008KT 8000 FEW026
BECMG 1900/1903 20008KT
BECMG 1906/1909 25008KT SCT026
BECMG 1912/1915 36008KT
BECMG 1918/1921 VRB02KT

Example: see airport list